Time;durP1;ratioP1;P1;durP2;ratioP2;P2;SDS_P1;SDS_P2;PMS_P1;PMS_P2;Temp;Humidity;BMP_temperature;BMP_pressure;BME280_temperature;BME280_humidity;BME280_pressure;Samples;Min_cycle;Max_cycle;Signal;HPM_P1;HPM_P2
2021/12/26 00:01:08;;;;;;;29.53;12.00;;;4.40;99.90;;;;;;4993173;28;20492;-59
2021/12/26 00:03:35;;;;;;;30.40;11.33;;;4.40;99.90;;;;;;5001219;28;20192;-56
2021/12/26 00:06:06;;;;;;;28.93;11.07;;;4.40;99.90;;;;;;5001586;28;20484;-56
2021/12/26 00:08:34;;;;;;;29.10;11.40;;;4.40;99.90;;;;;;4998128;28;20488;-58
2021/12/26 00:10:59;;;;;;;44.33;14.10;;;4.40;99.90;;;;;;4997969;28;20555;-58
2021/12/26 00:13:26;;;;;;;33.73;13.70;;;4.40;99.90;;;;;;5000006;28;20519;-56
2021/12/26 00:15:51;;;;;;;29.17;12.67;;;4.40;99.90;;;;;;4999974;28;20647;-59
2021/12/26 00:18:17;;;;;;;28.77;12.07;;;4.40;99.90;;;;;;5003172;28;20546;-57
2021/12/26 00:20:45;;;;;;;26.10;11.43;;;4.40;99.90;;;;;;4997398;28;20204;-58
2021/12/26 00:23:11;;;;;;;24.23;10.93;;;4.40;99.90;;;;;;4997905;28;20188;-57
2021/12/26 00:25:38;;;;;;;19.43;9.60;;;4.40;99.90;;;;;;5000659;28;20500;-59
2021/12/26 00:28:04;;;;;;;21.03;9.63;;;4.40;99.90;;;;;;5027294;23;20489;-58
2021/12/26 00:30:30;;;;;;;27.87;10.10;;;4.40;99.90;;;;;;5016762;28;20518;-58
2021/12/26 00:32:55;;;;;;;24.60;11.33;;;4.40;99.90;;;;;;5013407;28;20526;-59
2021/12/26 00:35:23;;;;;;;23.87;10.87;;;4.40;99.90;;;;;;5015192;28;20586;-58
2021/12/26 00:37:49;;;;;;;30.67;10.47;;;4.40;99.90;;;;;;5010470;28;20861;-60
2021/12/26 00:40:19;;;;;;;21.97;9.27;;;4.40;99.90;;;;;;5002198;28;20915;-59
2021/12/26 00:42:45;;;;;;;33.97;10.90;;;4.40;99.90;;;;;;4997271;28;20454;-59
2021/12/26 00:45:12;;;;;;;27.30;11.37;;;4.40;99.90;;;;;;4998930;28;21000;-59
2021/12/26 00:47:37;;;;;;;32.23;10.63;;;4.40;99.90;;;;;;5013961;28;21021;-59
2021/12/26 00:50:10;;;;;;;37.93;11.80;;;4.40;99.90;;;;;;4998034;28;20507;-59
2021/12/26 00:52:35;;;;;;;34.40;10.77;;;4.40;99.90;;;;;;4999781;28;20200;-59
2021/12/26 00:55:02;;;;;;;22.57;10.10;;;4.40;99.90;;;;;;4998927;28;20471;-59
2021/12/26 00:57:28;;;;;;;35.37;11.17;;;4.40;99.90;;;;;;5001441;28;20450;-59
2021/12/26 00:59:53;;;;;;;27.83;10.47;;;4.40;99.90;;;;;;5003213;28;20431;-59
2021/12/26 01:02:19;;;;;;;22.40;10.10;;;4.40;99.90;;;;;;5002122;28;20173;-59
2021/12/26 01:04:45;;;;;;;27.77;11.10;;;4.40;99.90;;;;;;5003648;28;20326;-60
2021/12/26 01:07:30;;;;;;;27.80;11.40;;;4.40;99.90;;;;;;5005669;28;20223;-60
2021/12/26 01:09:56;;;;;;;28.33;11.47;;;4.40;99.90;;;;;;5006333;28;20430;-59
2021/12/26 01:12:23;;;;;;;38.47;10.70;;;4.40;99.90;;;;;;5000997;28;20433;-57
2021/12/26 01:14:54;;;;;;;21.63;8.93;;;4.40;99.90;;;;;;5002752;28;20198;-58
2021/12/26 01:17:23;;;;;;;29.43;10.97;;;4.40;99.90;;;;;;5010129;28;20522;-59
2021/12/26 01:19:52;;;;;;;27.30;10.33;;;4.40;99.90;;;;;;5006846;28;20885;-58
2021/12/26 01:22:18;;;;;;;23.80;10.37;;;4.40;99.90;;;;;;5012159;28;20419;-60
2021/12/26 01:24:45;;;;;;;31.20;9.93;;;4.40;99.90;;;;;;5009880;28;20535;-59
2021/12/26 01:27:13;;;;;;;24.20;9.73;;;4.30;99.90;;;;;;5010534;28;20522;-59
2021/12/26 01:29:39;;;;;;;28.50;10.50;;;4.30;99.90;;;;;;5011629;28;20481;-58
2021/12/26 01:32:06;;;;;;;27.07;10.00;;;4.30;99.90;;;;;;5011503;28;20471;-58
2021/12/26 01:34:32;;;;;;;25.73;11.10;;;4.30;99.90;;;;;;5010327;28;21080;-58
2021/12/26 01:36:58;;;;;;;25.60;9.90;;;4.40;99.90;;;;;;5010611;28;20803;-59
2021/12/26 01:39:25;;;;;;;35.97;10.30;;;4.30;99.90;;;;;;5012471;28;20933;-58
2021/12/26 01:41:51;;;;;;;19.27;10.00;;;4.30;99.90;;;;;;5010892;28;20411;-58
2021/12/26 01:44:16;;;;;;;28.50;10.80;;;4.40;99.90;;;;;;5007988;28;20481;-57
2021/12/26 01:46:45;;;;;;;21.30;9.67;;;4.30;99.90;;;;;;5010770;28;20431;-59
2021/12/26 01:49:20;;;;;;;22.63;9.60;;;4.40;99.90;;;;;;5010091;28;20226;-58
2021/12/26 01:51:48;;;;;;;20.70;8.97;;;4.40;99.90;;;;;;5010557;28;20450;-58
2021/12/26 01:54:26;;;;;;;19.00;9.70;;;4.40;99.90;;;;;;5010212;28;20458;-58
2021/12/26 01:56:52;;;;;;;18.63;10.17;;;4.40;99.90;;;;;;5022570;28;20451;-59
2021/12/26 01:59:18;;;;;;;24.00;9.80;;;4.40;99.90;;;;;;5011854;28;20420;-59
2021/12/26 02:01:43;;;;;;;24.47;10.10;;;4.40;99.90;;;;;;5010389;28;20180;-59
2021/12/26 02:04:09;;;;;;;20.27;9.53;;;4.40;99.90;;;;;;5010904;28;20467;-59
2021/12/26 02:06:35;;;;;;;22.20;9.77;;;4.40;99.90;;;;;;5009472;28;20184;-58
2021/12/26 02:09:01;;;;;;;25.13;10.40;;;4.40;99.90;;;;;;5010426;28;20238;-58
2021/12/26 02:11:27;;;;;;;31.13;10.03;;;4.40;99.90;;;;;;5009422;28;20610;-58
2021/12/26 02:13:52;;;;;;;28.77;9.80;;;4.40;99.90;;;;;;5010679;28;20545;-59
2021/12/26 02:16:18;;;;;;;22.93;9.80;;;4.40;99.90;;;;;;5010493;28;20169;-59
2021/12/26 02:18:44;;;;;;;23.40;9.63;;;4.40;99.90;;;;;;5011368;28;20202;-58
2021/12/26 02:21:53;;;;;;;26.50;8.37;;;4.40;99.90;;;;;;5010080;28;20463;-59
2021/12/26 02:24:14;;;;;;;27.30;9.57;;;4.40;99.90;;;;;;5009702;28;20184;-59
2021/12/26 02:29:25;;;;;;;17.83;7.60;;;4.40;99.90;;;;;;5010502;28;20461;-58
2021/12/26 02:31:51;;;;;;;34.00;9.40;;;4.40;99.90;;;;;;5009994;28;20923;-59
2021/12/26 02:34:16;;;;;;;26.43;8.27;;;4.40;99.90;;;;;;5008216;28;20455;-58
2021/12/26 02:36:42;;;;;;;28.73;9.47;;;4.40;99.90;;;;;;5011262;28;20180;-59
2021/12/26 02:39:08;;;;;;;34.30;10.27;;;4.30;99.90;;;;;;5009421;28;20180;-59
2021/12/26 02:41:34;;;;;;;25.33;8.67;;;4.30;99.90;;;;;;5011064;28;20674;-58
2021/12/26 02:44:00;;;;;;;19.97;8.97;;;4.30;99.90;;;;;;5024218;28;20335;-59
2021/12/26 02:46:26;;;;;;;54.03;10.37;;;4.30;99.90;;;;;;5010826;28;20223;-58
2021/12/26 02:48:55;;;;;;;32.90;9.60;;;4.30;99.90;;;;;;5010494;28;20246;-58
2021/12/26 02:51:21;;;;;;;22.90;8.20;;;4.30;99.90;;;;;;5008399;28;20886;-59
2021/12/26 02:53:48;;;;;;;25.13;8.03;;;4.30;99.90;;;;;;5010849;28;20485;-58
2021/12/26 02:56:14;;;;;;;23.17;8.10;;;4.30;99.90;;;;;;5022926;28;20851;-59
2021/12/26 02:58:40;;;;;;;39.57;7.60;;;4.30;99.90;;;;;;5006724;28;20566;-59
2021/12/26 03:01:12;;;;;;;51.53;7.73;;;4.30;99.90;;;;;;5008544;28;20470;-59
2021/12/26 03:03:38;;;;;;;19.93;7.57;;;4.30;99.90;;;;;;5007677;28;20435;-59
2021/12/26 03:06:13;;;;;;;21.40;8.13;;;4.30;99.90;;;;;;5008061;28;20430;-59
2021/12/26 03:08:40;;;;;;;30.10;8.17;;;4.30;99.90;;;;;;5010908;28;20449;-59
2021/12/26 03:11:07;;;;;;;22.07;7.53;;;4.30;99.90;;;;;;5008065;28;21060;-59
2021/12/26 03:13:33;;;;;;;27.50;9.03;;;4.30;99.90;;;;;;5007067;28;21203;-59
2021/12/26 03:15:59;;;;;;;36.17;8.43;;;4.20;99.90;;;;;;5008733;28;20438;-56
2021/12/26 03:18:25;;;;;;;24.73;7.83;;;4.20;99.90;;;;;;5004938;28;20199;-58
2021/12/26 03:20:51;;;;;;;17.50;9.07;;;4.20;99.90;;;;;;5007195;28;20426;-57
2021/12/26 03:23:22;;;;;;;20.30;9.03;;;4.20;99.90;;;;;;5008284;28;20615;-59
2021/12/26 03:25:49;;;;;;;17.87;8.50;;;4.20;99.90;;;;;;5022836;28;20496;-57
2021/12/26 03:28:17;;;;;;;17.60;7.60;;;4.20;99.90;;;;;;5007147;28;20985;-59
2021/12/26 03:30:43;;;;;;;13.73;7.23;;;4.20;99.90;;;;;;5004666;28;20458;-60
2021/12/26 03:33:10;;;;;;;22.07;7.00;;;4.20;99.90;;;;;;5007444;28;20426;-59
2021/12/26 03:35:37;;;;;;;13.50;7.67;;;4.20;99.90;;;;;;5007474;28;20445;-58
2021/12/26 03:38:05;;;;;;;24.80;7.73;;;4.20;99.90;;;;;;5006840;28;20486;-58
2021/12/26 03:40:32;;;;;;;15.67;7.53;;;4.20;99.90;;;;;;5002803;28;20432;-56
2021/12/26 03:42:57;;;;;;;16.50;7.80;;;4.20;99.90;;;;;;5005562;28;20848;-59
2021/12/26 03:45:23;;;;;;;16.73;7.53;;;4.30;99.90;;;;;;5006101;28;20478;-59
2021/12/26 03:47:50;;;;;;;13.70;7.67;;;4.20;99.90;;;;;;5006422;28;20196;-58
2021/12/26 03:50:21;;;;;;;16.93;7.60;;;4.20;99.90;;;;;;5005335;28;20199;-60
2021/12/26 03:52:50;;;;;;;16.37;7.70;;;4.20;99.90;;;;;;5007212;28;20415;-57
2021/12/26 03:55:18;;;;;;;13.07;7.77;;;4.30;99.90;;;;;;5007485;28;20462;-59
2021/12/26 03:57:45;;;;;;;13.23;6.77;;;4.20;99.90;;;;;;5006657;28;20473;-59
2021/12/26 04:00:14;;;;;;;15.13;7.90;;;4.20;99.90;;;;;;5005924;28;20436;-59
2021/12/26 04:02:39;;;;;;;15.67;7.57;;;4.20;99.90;;;;;;5008896;28;20844;-59
2021/12/26 04:05:05;;;;;;;22.30;7.60;;;4.20;99.90;;;;;;5006738;28;20502;-59
2021/12/26 04:07:31;;;;;;;17.57;7.70;;;4.20;99.90;;;;;;5007053;28;20199;-58
2021/12/26 04:09:57;;;;;;;16.77;8.33;;;4.20;99.90;;;;;;5005479;28;20510;-59
2021/12/26 04:12:22;;;;;;;20.40;8.33;;;4.20;99.90;;;;;;5007745;28;20188;-59
2021/12/26 04:14:48;;;;;;;15.83;7.83;;;4.20;99.90;;;;;;5004876;28;20285;-59
2021/12/26 04:17:16;;;;;;;16.10;7.73;;;4.20;99.90;;;;;;5006570;28;20279;-58
2021/12/26 04:19:42;;;;;;;16.20;6.70;;;4.20;99.90;;;;;;5007867;28;20204;-58
2021/12/26 04:22:08;;;;;;;15.97;7.50;;;4.20;99.90;;;;;;5006659;28;20407;-59
2021/12/26 04:24:34;;;;;;;27.67;8.17;;;4.20;99.90;;;;;;5006204;28;20172;-59
2021/12/26 04:27:00;;;;;;;14.40;7.87;;;4.20;99.90;;;;;;5021763;28;20446;-59
2021/12/26 04:29:25;;;;;;;20.60;7.87;;;4.20;99.90;;;;;;5005839;28;20423;-57
2021/12/26 04:31:51;;;;;;;14.23;6.93;;;4.20;99.90;;;;;;5021341;28;20647;-59
2021/12/26 04:34:17;;;;;;;18.07;6.70;;;4.20;99.90;;;;;;5007206;28;20680;-60
2021/12/26 04:36:43;;;;;;;14.70;7.07;;;4.20;99.90;;;;;;5008489;28;20451;-58
2021/12/26 04:39:08;;;;;;;15.20;6.20;;;4.30;99.90;;;;;;5006728;28;20260;-58
2021/12/26 04:41:34;;;;;;;26.27;7.00;;;4.20;99.90;;;;;;5004588;28;20649;-59
2021/12/26 04:44:00;;;;;;;16.20;6.37;;;4.20;99.90;;;;;;5006714;28;20191;-59
2021/12/26 04:46:25;;;;;;;11.03;5.80;;;4.20;99.90;;;;;;5007444;28;20740;-59
2021/12/26 04:48:51;;;;;;;24.80;6.50;;;4.30;99.90;;;;;;5004849;28;20199;-59
2021/12/26 04:51:17;;;;;;;8.90;5.77;;;4.20;99.90;;;;;;5007112;28;20186;-58
2021/12/26 04:53:43;;;;;;;11.60;6.33;;;4.20;99.90;;;;;;5006734;28;20224;-58
2021/12/26 04:56:08;;;;;;;10.90;5.63;;;4.20;99.90;;;;;;5005544;28;20172;-59
2021/12/26 04:58:35;;;;;;;10.23;5.50;;;4.20;99.90;;;;;;5007222;28;20443;-59
2021/12/26 05:01:01;;;;;;;10.53;5.40;;;4.20;99.90;;;;;;5006748;28;20271;-59
2021/12/26 05:03:27;;;;;;;8.23;4.97;;;4.20;99.90;;;;;;5006236;28;20428;-59
2021/12/26 05:05:53;;;;;;;10.90;6.10;;;4.20;99.90;;;;;;5003876;28;20494;-58
2021/12/26 05:08:19;;;;;;;11.90;5.67;;;4.20;99.90;;;;;;5003751;28;20698;-59
2021/12/26 05:10:44;;;;;;;8.70;5.43;;;4.20;99.90;;;;;;5003758;28;20231;-59
2021/12/26 05:13:10;;;;;;;7.57;5.03;;;4.20;99.90;;;;;;5005977;28;20614;-59
2021/12/26 05:15:37;;;;;;;11.63;6.10;;;4.20;99.90;;;;;;5005216;28;20271;-56
2021/12/26 05:18:04;;;;;;;10.77;5.67;;;4.20;99.90;;;;;;5006820;28;20255;-59
2021/12/26 05:20:31;;;;;;;10.60;5.60;;;4.20;99.90;;;;;;5007049;28;20835;-59
2021/12/26 05:22:59;;;;;;;9.50;5.70;;;4.20;99.90;;;;;;5003899;28;20436;-57
2021/12/26 05:25:26;;;;;;;11.67;5.77;;;4.20;99.90;;;;;;5005496;28;20485;-59
2021/12/26 05:27:52;;;;;;;8.37;5.73;;;4.20;99.90;;;;;;5020972;28;20510;-59
2021/12/26 05:30:19;;;;;;;9.27;6.20;;;4.20;99.90;;;;;;5004944;28;20443;-57
2021/12/26 05:32:46;;;;;;;10.47;5.47;;;4.20;99.90;;;;;;5004809;28;20427;-58
2021/12/26 05:35:13;;;;;;;12.70;6.53;;;4.20;99.90;;;;;;5005527;28;20464;-57
2021/12/26 05:37:39;;;;;;;9.97;5.40;;;4.30;99.90;;;;;;5005877;28;20442;-59
2021/12/26 05:40:07;;;;;;;15.80;5.20;;;4.20;99.90;;;;;;5003374;28;21004;-58
2021/12/26 05:42:33;;;;;;;10.97;5.50;;;4.30;99.90;;;;;;5005694;28;20439;-58
2021/12/26 05:45:00;;;;;;;13.27;5.53;;;4.30;99.90;;;;;;5006696;28;20434;-59
2021/12/26 05:47:26;;;;;;;9.60;5.80;;;4.30;99.90;;;;;;5003107;28;21021;-59
2021/12/26 05:49:52;;;;;;;13.53;6.63;;;4.20;99.90;;;;;;5003013;28;20531;-58
2021/12/26 05:52:21;;;;;;;12.40;7.17;;;4.20;99.90;;;;;;5006285;28;20208;-58
2021/12/26 05:54:47;;;;;;;10.37;6.20;;;4.20;99.90;;;;;;5005163;28;20459;-59
2021/12/26 05:57:13;;;;;;;12.13;5.53;;;4.20;99.90;;;;;;5003135;28;20482;-59
2021/12/26 05:59:38;;;;;;;9.97;5.87;;;4.20;99.90;;;;;;5004531;28;20983;-59
2021/12/26 06:02:04;;;;;;;11.50;5.77;;;4.20;99.90;;;;;;5006442;28;20180;-59
2021/12/26 06:04:30;;;;;;;17.20;5.60;;;4.20;99.90;;;;;;5004646;28;20775;-56
2021/12/26 06:06:56;;;;;;;10.20;6.40;;;4.20;99.90;;;;;;5008848;28;20473;-59
2021/12/26 06:09:22;;;;;;;15.10;6.13;;;4.20;99.90;;;;;;5008712;28;20179;-59
2021/12/26 06:11:48;;;;;;;9.00;5.40;;;4.20;99.90;;;;;;5009750;28;20842;-58
2021/12/26 06:14:14;;;;;;;8.20;5.23;;;4.20;99.90;;;;;;5009069;28;20214;-59
2021/12/26 06:16:40;;;;;;;9.17;5.43;;;4.20;99.90;;;;;;5009293;28;20188;-58
2021/12/26 06:19:05;;;;;;;10.37;6.07;;;4.20;99.90;;;;;;5024932;28;20810;-59
2021/12/26 06:21:31;;;;;;;11.63;6.07;;;4.20;99.90;;;;;;5007682;28;20722;-58
2021/12/26 06:23:57;;;;;;;7.60;5.03;;;4.20;99.90;;;;;;5007765;28;20176;-58
2021/12/26 06:26:25;;;;;;;9.40;5.37;;;4.20;99.90;;;;;;5009180;28;20603;-59
2021/12/26 06:28:51;;;;;;;8.40;5.80;;;4.20;99.90;;;;;;5008076;28;20276;-58
2021/12/26 06:31:17;;;;;;;10.27;5.60;;;4.20;99.90;;;;;;5008302;28;20921;-58
2021/12/26 06:33:46;;;;;;;7.43;5.80;;;4.20;99.90;;;;;;5009111;28;20512;-58
2021/12/26 06:36:13;;;;;;;10.60;5.27;;;4.20;99.90;;;;;;5005663;28;20435;-56
2021/12/26 06:38:40;;;;;;;10.27;5.63;;;4.20;99.90;;;;;;5006171;28;20534;-59
2021/12/26 06:41:07;;;;;;;9.90;5.27;;;4.20;99.90;;;;;;5008083;28;21021;-59
2021/12/26 06:43:35;;;;;;;9.43;5.47;;;4.20;99.90;;;;;;5005059;28;20474;-58
2021/12/26 06:46:01;;;;;;;11.83;6.40;;;4.20;99.90;;;;;;5005617;28;20446;-59
2021/12/26 06:48:27;;;;;;;9.57;6.10;;;4.20;99.90;;;;;;5006275;28;21108;-58
2021/12/26 06:50:53;;;;;;;7.87;5.33;;;4.20;99.90;;;;;;5021696;28;20451;-59
2021/12/26 06:53:19;;;;;;;10.60;6.10;;;4.20;99.90;;;;;;5007746;28;20234;-58
2021/12/26 06:55:45;;;;;;;11.07;6.27;;;4.20;99.90;;;;;;5022215;28;20345;-59
2021/12/26 06:58:12;;;;;;;10.83;5.67;;;4.20;99.90;;;;;;5021353;28;20456;-59
2021/12/26 07:00:37;;;;;;;10.90;5.43;;;4.20;99.90;;;;;;5002527;28;20474;-59
2021/12/26 07:03:03;;;;;;;10.03;4.93;;;4.20;99.90;;;;;;4998010;28;20427;-59
2021/12/26 07:05:29;;;;;;;10.70;5.50;;;4.20;99.90;;;;;;4999823;28;20227;-59
2021/12/26 07:07:55;;;;;;;10.07;5.17;;;4.20;99.90;;;;;;5022444;28;20207;-58
2021/12/26 07:10:20;;;;;;;8.40;5.23;;;4.20;99.90;;;;;;5005625;28;20184;-58
2021/12/26 07:12:46;;;;;;;6.53;4.70;;;4.20;99.90;;;;;;5007279;28;20274;-59
2021/12/26 07:15:13;;;;;;;10.40;5.73;;;4.20;99.90;;;;;;5004609;28;20204;-59
2021/12/26 07:17:40;;;;;;;9.07;4.97;;;4.30;99.90;;;;;;5004240;28;20706;-59
2021/12/26 07:20:08;;;;;;;10.47;5.27;;;4.30;99.90;;;;;;5006630;28;20580;-59
2021/12/26 07:22:33;;;;;;;10.87;5.93;;;4.30;99.90;;;;;;5007008;28;20937;-59
2021/12/26 07:24:59;;;;;;;10.50;5.77;;;4.30;99.90;;;;;;5005212;28;20435;-59
2021/12/26 07:27:25;;;;;;;7.97;5.90;;;4.30;99.90;;;;;;5007682;28;20690;-59
2021/12/26 07:29:51;;;;;;;11.80;6.03;;;4.30;99.90;;;;;;5004448;28;20202;-59
2021/12/26 07:32:17;;;;;;;13.37;5.77;;;4.30;99.90;;;;;;5021279;28;20435;-58
2021/12/26 07:34:42;;;;;;;11.03;6.23;;;4.30;99.90;;;;;;5007527;28;20670;-59
2021/12/26 07:37:09;;;;;;;13.00;6.70;;;4.30;99.90;;;;;;5003585;28;20208;-59
2021/12/26 07:39:35;;;;;;;15.87;6.87;;;4.30;99.90;;;;;;5003872;28;20734;-57
2021/12/26 07:42:02;;;;;;;9.33;6.00;;;4.30;99.90;;;;;;5002292;28;20459;-59
2021/12/26 07:44:27;;;;;;;17.70;7.20;;;4.30;99.90;;;;;;5004224;28;20875;-59
2021/12/26 07:46:53;;;;;;;17.50;7.63;;;4.30;99.90;;;;;;5006149;28;20796;-59
2021/12/26 07:49:22;;;;;;;14.77;6.80;;;4.30;99.90;;;;;;5002643;28;20258;-59
2021/12/26 07:51:49;;;;;;;17.50;6.63;;;4.30;99.90;;;;;;5004304;28;20659;-59
2021/12/26 07:54:16;;;;;;;16.63;6.63;;;4.30;99.90;;;;;;5006202;28;20466;-59
2021/12/26 07:56:42;;;;;;;22.07;6.50;;;4.30;99.90;;;;;;5018409;28;20905;-59
2021/12/26 07:59:08;;;;;;;13.70;5.80;;;4.30;99.90;;;;;;5007129;28;20450;-59
2021/12/26 08:01:37;;;;;;;11.67;6.27;;;4.30;99.90;;;;;;5003267;28;20447;-59
2021/12/26 08:04:05;;;;;;;14.30;6.80;;;4.20;99.90;;;;;;5006598;28;20427;-56
2021/12/26 08:06:32;;;;;;;12.77;5.93;;;4.30;99.90;;;;;;5003011;28;20834;-59
2021/12/26 08:08:58;;;;;;;15.07;6.47;;;4.20;99.90;;;;;;5005775;28;20485;-59
2021/12/26 08:11:24;;;;;;;13.50;6.60;;;4.30;99.90;;;;;;5002565;28;20439;-59
2021/12/26 08:13:50;;;;;;;14.33;6.93;;;4.30;99.90;;;;;;5004956;28;20207;-58
2021/12/26 08:16:16;;;;;;;9.10;5.70;;;4.30;99.90;;;;;;5006294;28;20432;-57
2021/12/26 08:18:42;;;;;;;13.70;6.97;;;4.30;99.90;;;;;;5004626;28;21079;-58
2021/12/26 08:21:08;;;;;;;16.50;7.67;;;4.30;99.90;;;;;;5002258;28;20231;-59
2021/12/26 08:23:34;;;;;;;14.67;7.50;;;4.30;99.90;;;;;;4999132;28;20454;-58
2021/12/26 08:26:02;;;;;;;10.37;6.30;;;4.30;99.90;;;;;;5003648;28;20431;-59
2021/12/26 08:28:30;;;;;;;11.70;6.40;;;4.30;99.90;;;;;;5001311;28;20486;-59
2021/12/26 08:30:56;;;;;;;15.40;7.67;;;4.30;99.90;;;;;;5001448;28;20493;-58
2021/12/26 08:33:21;;;;;;;20.30;9.60;;;4.40;99.90;;;;;;4999586;28;20774;-59
2021/12/26 08:35:48;;;;;;;19.37;9.40;;;4.40;99.90;;;;;;4998983;28;20176;-59
2021/12/26 08:38:16;;;;;;;14.03;8.27;;;4.40;99.90;;;;;;5005801;28;20379;-59
2021/12/26 08:40:43;;;;;;;17.50;8.40;;;4.40;99.90;;;;;;5003349;28;20433;-60
2021/12/26 08:43:08;;;;;;;16.13;8.30;;;4.40;99.90;;;;;;5000521;28;20434;-59
2021/12/26 08:45:36;;;;;;;18.23;8.47;;;4.50;99.90;;;;;;5020465;28;20422;-60
2021/12/26 08:48:02;;;;;;;15.80;7.90;;;4.50;99.90;;;;;;5001579;28;20334;-60
2021/12/26 08:50:30;;;;;;;14.17;7.47;;;4.50;99.90;;;;;;5016984;28;20450;-60
2021/12/26 08:52:56;;;;;;;14.80;8.10;;;4.50;99.90;;;;;;4998762;28;20439;-59
2021/12/26 08:55:23;;;;;;;18.40;8.10;;;4.60;99.90;;;;;;4999983;28;20513;-59
2021/12/26 08:57:54;;;;;;;14.00;8.40;;;4.60;99.90;;;;;;5000255;28;20991;-59
2021/12/26 09:00:22;;;;;;;15.00;8.17;;;4.60;99.90;;;;;;5002741;28;20431;-60
2021/12/26 09:02:49;;;;;;;13.27;8.03;;;4.70;99.90;;;;;;5004989;28;20510;-60
2021/12/26 09:05:15;;;;;;;15.73;8.40;;;4.70;99.90;;;;;;5000014;28;20434;-59
2021/12/26 09:07:41;;;;;;;16.37;9.07;;;4.80;99.90;;;;;;5003802;28;20454;-59
2021/12/26 09:10:09;;;;;;;13.30;8.23;;;4.80;99.90;;;;;;5005181;28;20488;-57
2021/12/26 09:12:35;;;;;;;14.07;7.90;;;4.90;99.90;;;;;;4994357;28;20565;-59
2021/12/26 09:15:01;;;;;;;15.77;8.73;;;4.90;99.90;;;;;;5005710;28;20482;-60
2021/12/26 09:17:27;;;;;;;17.90;9.53;;;5.00;99.90;;;;;;5000559;28;20196;-56
2021/12/26 09:19:52;;;;;;;21.40;8.50;;;5.00;99.90;;;;;;4998853;28;20436;-59
2021/12/26 09:22:18;;;;;;;18.23;9.97;;;5.00;99.90;;;;;;5007363;28;20184;-58
2021/12/26 09:24:45;;;;;;;16.67;9.07;;;5.10;99.90;;;;;;5004478;28;20188;-59
2021/12/26 09:27:13;;;;;;;16.83;8.80;;;5.10;99.90;;;;;;5010340;28;20215;-60
2021/12/26 09:29:38;;;;;;;14.73;8.83;;;5.10;99.90;;;;;;5002023;28;20441;-59
2021/12/26 09:32:05;;;;;;;17.87;10.07;;;5.10;99.90;;;;;;5012676;28;20435;-59
2021/12/26 09:34:33;;;;;;;21.70;9.40;;;5.10;99.90;;;;;;5002509;28;20196;-59
2021/12/26 09:37:00;;;;;;;17.77;9.77;;;5.10;99.90;;;;;;5008796;28;20458;-59
2021/12/26 09:39:26;;;;;;;17.27;9.40;;;5.10;99.90;;;;;;5004023;28;20431;-58
2021/12/26 09:41:53;;;;;;;17.57;9.67;;;5.10;99.90;;;;;;5008772;28;20438;-60
2021/12/26 09:44:20;;;;;;;16.37;9.37;;;5.10;99.90;;;;;;5011508;28;20439;-58
2021/12/26 09:46:45;;;;;;;21.77;10.97;;;5.10;99.90;;;;;;5007479;28;20448;-59
2021/12/26 09:49:11;;;;;;;20.80;11.60;;;5.10;99.90;;;;;;5008314;28;20454;-59
2021/12/26 09:51:37;;;;;;;19.03;11.43;;;5.10;99.90;;;;;;5003083;28;20188;-60
2021/12/26 09:54:04;;;;;;;20.10;10.60;;;5.10;99.90;;;;;;5019305;28;20228;-60
2021/12/26 09:56:30;;;;;;;13.33;8.60;;;5.10;99.90;;;;;;5001570;28;20185;-60
2021/12/26 09:59:00;;;;;;;18.07;11.00;;;5.10;99.90;;;;;;4999950;28;20484;-58
2021/12/26 10:01:31;;;;;;;15.93;8.57;;;5.10;99.90;;;;;;5004483;28;20979;-61
2021/12/26 10:04:17;;;;;;;13.73;7.93;;;5.20;99.90;;;;;;5000756;28;20461;-59
2021/12/26 10:06:44;;;;;;;15.60;8.20;;;5.20;99.90;;;;;;5001379;28;20476;-59
2021/12/26 10:09:11;;;;;;;25.30;13.90;;;5.20;99.90;;;;;;5003245;28;20474;-59
2021/12/26 10:11:42;;;;;;;15.57;8.97;;;5.30;99.90;;;;;;5005052;28;20447;-62
2021/12/26 10:14:15;;;;;;;10.30;6.70;;;5.30;99.90;;;;;;4998184;28;20562;-58
2021/12/26 10:16:47;;;;;;;15.53;8.33;;;5.30;99.90;;;;;;5001343;28;20432;-58
2021/12/26 10:19:16;;;;;;;11.40;7.47;;;5.40;99.90;;;;;;4997098;28;20439;-59
2021/12/26 10:21:48;;;;;;;11.10;7.43;;;5.40;99.90;;;;;;5001196;28;20459;-58
2021/12/26 10:24:31;;;;;;;15.63;7.47;;;5.50;99.90;;;;;;5013627;28;20446;-60
2021/12/26 10:27:01;;;;;;;11.70;6.70;;;5.50;99.90;;;;;;5000740;28;21032;-60
2021/12/26 10:29:33;;;;;;;7.37;5.23;;;5.60;99.90;;;;;;5000323;28;20449;-60
2021/12/26 10:32:15;;;;;;;13.33;5.70;;;5.60;99.90;;;;;;5010807;28;20440;-59
2021/12/26 10:34:50;;;;;;;11.90;6.90;;;5.70;99.90;;;;;;4998372;28;20466;-60
2021/12/26 10:37:23;;;;;;;8.30;5.87;;;5.70;99.90;;;;;;4996888;28;20447;-59
2021/12/26 10:39:53;;;;;;;9.23;6.00;;;5.80;99.90;;;;;;5003212;28;20550;-60
2021/12/26 10:42:22;;;;;;;10.27;7.07;;;5.90;99.90;;;;;;5004934;28;20545;-60
2021/12/26 10:45:16;;;;;;;11.57;7.13;;;5.90;99.90;;;;;;4999574;28;20501;-62
2021/12/26 10:47:45;;;;;;;12.03;7.23;;;6.00;99.90;;;;;;5005084;28;20471;-59
2021/12/26 10:50:15;;;;;;;9.13;5.93;;;6.00;99.90;;;;;;5003176;28;20435;-60
2021/12/26 10:52:51;;;;;;;12.07;7.47;;;6.00;99.90;;;;;;4993972;28;20486;-60
2021/12/26 10:55:34;;;;;;;9.53;6.33;;;6.10;99.90;;;;;;4989443;28;20470;-60
2021/12/26 10:58:03;;;;;;;8.70;5.80;;;6.10;99.90;;;;;;5000218;28;20455;-59
2021/12/26 11:00:32;;;;;;;6.27;4.90;;;6.10;99.90;;;;;;5000451;28;20430;-62
2021/12/26 11:03:05;;;;;;;9.80;5.83;;;6.10;99.90;;;;;;4995845;28;20430;-60
2021/12/26 11:05:44;;;;;;;8.13;5.00;;;6.10;99.90;;;;;;4998832;28;20446;-59
2021/12/26 11:08:14;;;;;;;5.60;4.00;;;6.10;99.90;;;;;;4995554;28;20451;-60
2021/12/26 11:10:41;;;;;;;6.33;3.83;;;6.20;99.90;;;;;;4999713;28;20435;-60
2021/12/26 11:13:17;;;;;;;4.60;3.17;;;6.10;99.90;;;;;;5009908;28;20471;-59
2021/12/26 11:15:45;;;;;;;4.33;3.30;;;6.20;99.90;;;;;;4995683;28;20451;-60
2021/12/26 11:18:14;;;;;;;3.30;3.00;;;6.20;99.90;;;;;;5011995;28;20450;-60
2021/12/26 11:20:52;;;;;;;3.00;2.73;;;6.10;99.90;;;;;;5009757;28;20507;-59
2021/12/26 11:23:26;;;;;;;3.47;3.03;;;6.10;99.90;;;;;;5024149;28;20431;-60
2021/12/26 11:25:54;;;;;;;4.90;3.97;;;6.10;99.90;;;;;;5010555;28;20960;-58
2021/12/26 11:28:26;;;;;;;5.30;4.00;;;6.10;99.90;;;;;;5010546;28;20753;-60
2021/12/26 11:30:54;;;;;;;8.50;5.27;;;6.20;99.90;;;;;;5011314;28;20516;-59
2021/12/26 11:33:21;;;;;;;5.03;3.83;;;6.10;99.90;;;;;;5012273;28;20427;-58
2021/12/26 11:35:48;;;;;;;5.63;4.30;;;6.20;99.90;;;;;;5025248;28;20804;-60
2021/12/26 11:38:20;;;;;;;4.70;4.20;;;6.10;99.90;;;;;;5021175;28;20442;-59
2021/12/26 11:40:47;;;;;;;9.03;6.20;;;6.20;99.90;;;;;;5010525;28;20428;-59
2021/12/26 11:43:31;;;;;;;7.53;4.67;;;6.20;99.90;;;;;;5012435;28;21151;-60
2021/12/26 11:46:27;;;;;;;7.57;4.63;;;6.20;99.90;;;;;;5019754;28;20457;-60
2021/12/26 11:49:21;;;;;;;7.10;4.50;;;6.20;99.90;;;;;;5012365;28;20981;-59
2021/12/26 11:52:22;;;;;;;6.57;5.57;;;6.20;99.90;;;;;;4990704;28;20447;-59
2021/12/26 11:55:03;;;;;;;5.67;4.37;;;6.30;99.90;;;;;;5013893;28;20461;-56
2021/12/26 11:57:31;;;;;;;9.40;6.60;;;6.30;99.90;;;;;;5023221;28;20791;-60
2021/12/26 12:00:36;;;;;;;7.27;5.20;;;6.30;99.90;;;;;;5014958;28;20426;-60
2021/12/26 12:03:05;;;;;;;17.07;8.57;;;6.30;99.90;;;;;;5017016;28;20425;-59
2021/12/26 12:05:40;;;;;;;11.43;6.87;;;6.30;99.90;;;;;;5009288;28;20941;-60
2021/12/26 12:08:25;;;;;;;7.63;5.30;;;6.30;99.90;;;;;;5017292;28;20452;-60
2021/12/26 12:10:54;;;;;;;11.13;5.70;;;6.30;99.90;;;;;;5010113;28;20481;-59
2021/12/26 12:13:26;;;;;;;8.67;5.83;;;6.30;99.90;;;;;;5006674;28;20444;-59
2021/12/26 12:16:02;;;;;;;8.67;6.43;;;6.30;99.90;;;;;;5008242;28;20454;-59
2021/12/26 12:18:31;;;;;;;10.70;6.10;;;6.20;99.90;;;;;;5008514;28;20458;-60
2021/12/26 12:21:23;;;;;;;12.93;7.07;;;6.20;99.90;;;;;;5007495;28;21011;-59
2021/12/26 12:24:07;;;;;;;11.37;7.10;;;6.20;99.90;;;;;;5018971;28;20983;-59
2021/12/26 12:26:52;;;;;;;10.43;6.43;;;6.20;99.90;;;;;;5009463;28;20427;-60
2021/12/26 12:29:24;;;;;;;9.80;6.63;;;6.20;99.90;;;;;;5019574;28;20861;-60
2021/12/26 12:32:08;;;;;;;9.30;6.63;;;6.20;99.90;;;;;;5011885;28;20525;-61
2021/12/26 12:34:54;;;;;;;10.93;7.40;;;6.20;99.90;;;;;;5009810;28;20617;-59
2021/12/26 12:37:32;;;;;;;10.50;7.23;;;6.20;99.90;;;;;;5016011;28;20514;-60
2021/12/26 12:40:06;;;;;;;11.03;7.20;;;6.20;99.90;;;;;;5006446;28;20449;-57
2021/12/26 12:42:33;;;;;;;12.33;6.67;;;6.20;99.90;;;;;;5009844;28;20406;-59
2021/12/26 12:45:00;;;;;;;10.63;7.33;;;6.20;99.90;;;;;;5012946;28;20958;-58
2021/12/26 12:47:26;;;;;;;13.03;8.20;;;6.20;99.90;;;;;;5011730;28;20498;-61
2021/12/26 12:50:02;;;;;;;12.97;7.70;;;6.20;99.90;;;;;;5010674;28;20859;-60
2021/12/26 12:52:44;;;;;;;10.83;7.57;;;6.20;99.90;;;;;;5015502;28;20425;-59
2021/12/26 12:55:13;;;;;;;12.23;7.53;;;6.20;99.90;;;;;;5011329;28;20475;-59
2021/12/26 12:57:49;;;;;;;15.27;8.97;;;6.20;99.90;;;;;;5009648;28;20439;-59